sensor_id;sensor_type;location;lat;lon;timestamp;P1;durP1;ratioP1;P2;durP2;ratioP2
51332;SDS011;37417;48.118;11.734;2024-03-06T00:01:29;19.77;;;12.75;;
51332;SDS011;37417;48.118;11.734;2024-03-06T00:04:15;19.50;;;12.93;;
51332;SDS011;37417;48.118;11.734;2024-03-06T00:07:00;19.08;;;12.43;;
51332;SDS011;37417;48.118;11.734;2024-03-06T00:09:46;21.17;;;12.23;;
51332;SDS011;37417;48.118;11.734;2024-03-06T00:12:32;23.83;;;14.23;;
51332;SDS011;37417;48.118;11.734;2024-03-06T00:15:17;18.40;;;11.95;;
51332;SDS011;37417;48.118;11.734;2024-03-06T00:18:03;20.27;;;12.85;;
51332;SDS011;37417;48.118;11.734;2024-03-06T00:20:49;19.80;;;12.70;;
51332;SDS011;37417;48.118;11.734;2024-03-06T00:23:34;21.77;;;13.07;;
51332;SDS011;37417;48.118;11.734;2024-03-06T00:26:21;20.15;;;13.35;;
51332;SDS011;37417;48.118;11.734;2024-03-06T00:29:06;19.85;;;13.70;;
51332;SDS011;37417;48.118;11.734;2024-03-06T00:31:52;23.58;;;13.93;;
51332;SDS011;37417;48.118;11.734;2024-03-06T00:34:38;23.38;;;14.48;;
51332;SDS011;37417;48.118;11.734;2024-03-06T00:37:23;28.48;;;15.55;;
51332;SDS011;37417;48.118;11.734;2024-03-06T00:40:09;26.92;;;14.57;;
51332;SDS011;37417;48.118;11.734;2024-03-06T00:42:54;21.13;;;13.68;;
51332;SDS011;37417;48.118;11.734;2024-03-06T00:45:40;22.33;;;14.48;;
51332;SDS011;37417;48.118;11.734;2024-03-06T00:48:25;20.13;;;14.70;;
51332;SDS011;37417;48.118;11.734;2024-03-06T00:51:11;24.08;;;14.23;;
51332;SDS011;37417;48.118;11.734;2024-03-06T00:53:57;24.40;;;15.07;;
51332;SDS011;37417;48.118;11.734;2024-03-06T00:56:42;23.40;;;14.82;;
51332;SDS011;37417;48.118;11.734;2024-03-06T00:59:28;25.17;;;15.27;;
51332;SDS011;37417;48.118;11.734;2024-03-06T01:02:14;26.90;;;15.05;;
51332;SDS011;37417;48.118;11.734;2024-03-06T01:04:59;23.52;;;13.48;;
51332;SDS011;37417;48.118;11.734;2024-03-06T01:07:46;24.95;;;14.43;;
51332;SDS011;37417;48.118;11.734;2024-03-06T01:10:32;19.63;;;13.48;;
51332;SDS011;37417;48.118;11.734;2024-03-06T01:13:18;22.05;;;14.73;;
51332;SDS011;37417;48.118;11.734;2024-03-06T01:16:04;25.13;;;14.50;;
51332;SDS011;37417;48.118;11.734;2024-03-06T01:18:49;22.65;;;14.70;;
51332;SDS011;37417;48.118;11.734;2024-03-06T01:21:35;26.58;;;14.43;;
51332;SDS011;37417;48.118;11.734;2024-03-06T01:24:20;21.27;;;13.65;;
51332;SDS011;37417;48.118;11.734;2024-03-06T01:27:06;28.85;;;14.52;;
51332;SDS011;37417;48.118;11.734;2024-03-06T01:29:51;23.48;;;14.98;;
51332;SDS011;37417;48.118;11.734;2024-03-06T01:32:37;20.88;;;13.27;;
51332;SDS011;37417;48.118;11.734;2024-03-06T01:35:23;23.23;;;14.88;;
51332;SDS011;37417;48.118;11.734;2024-03-06T01:38:09;22.38;;;14.70;;
51332;SDS011;37417;48.118;11.734;2024-03-06T01:40:55;22.48;;;13.95;;
51332;SDS011;37417;48.118;11.734;2024-03-06T01:43:41;31.63;;;16.40;;
51332;SDS011;37417;48.118;11.734;2024-03-06T01:46:26;25.58;;;15.02;;
51332;SDS011;37417;48.118;11.734;2024-03-06T01:49:12;27.00;;;14.77;;
51332;SDS011;37417;48.118;11.734;2024-03-06T01:51:58;24.52;;;14.40;;
51332;SDS011;37417;48.118;11.734;2024-03-06T01:54:45;22.90;;;13.60;;
51332;SDS011;37417;48.118;11.734;2024-03-06T01:57:31;25.67;;;14.68;;
51332;SDS011;37417;48.118;11.734;2024-03-06T02:00:17;23.95;;;13.23;;
51332;SDS011;37417;48.118;11.734;2024-03-06T02:03:02;28.02;;;14.98;;
51332;SDS011;37417;48.118;11.734;2024-03-06T02:09:11;26.40;;;14.50;;
51332;SDS011;37417;48.118;11.734;2024-03-06T02:11:59;25.67;;;13.68;;
51332;SDS011;37417;48.118;11.734;2024-03-06T02:14:44;19.83;;;13.07;;
51332;SDS011;37417;48.118;11.734;2024-03-06T02:17:30;26.00;;;14.23;;
51332;SDS011;37417;48.118;11.734;2024-03-06T02:20:16;24.13;;;14.02;;
51332;SDS011;37417;48.118;11.734;2024-03-06T02:23:01;27.55;;;14.38;;
51332;SDS011;37417;48.118;11.734;2024-03-06T02:25:48;24.50;;;12.75;;
51332;SDS011;37417;48.118;11.734;2024-03-06T02:28:33;27.88;;;14.98;;
51332;SDS011;37417;48.118;11.734;2024-03-06T02:31:20;23.67;;;13.77;;
51332;SDS011;37417;48.118;11.734;2024-03-06T02:34:06;24.05;;;12.48;;
51332;SDS011;37417;48.118;11.734;2024-03-06T02:36:52;24.35;;;13.45;;
51332;SDS011;37417;48.118;11.734;2024-03-06T02:39:38;19.35;;;12.60;;
51332;SDS011;37417;48.118;11.734;2024-03-06T02:42:23;23.40;;;13.07;;
51332;SDS011;37417;48.118;11.734;2024-03-06T02:45:09;28.45;;;13.43;;
51332;SDS011;37417;48.118;11.734;2024-03-06T02:47:54;7.70;;;5.43;;
51332;SDS011;37417;48.118;11.734;2024-03-06T02:50:40;7.40;;;4.55;;
51332;SDS011;37417;48.118;11.734;2024-03-06T02:53:26;4.20;;;2.42;;
51332;SDS011;37417;48.118;11.734;2024-03-06T02:56:16;2.72;;;2.25;;
51332;SDS011;37417;48.118;11.734;2024-03-06T02:59:02;2.58;;;2.38;;
51332;SDS011;37417;48.118;11.734;2024-03-06T03:01:48;1.40;;;1.30;;
51332;SDS011;37417;48.118;11.734;2024-03-06T03:04:34;1.85;;;1.02;;
51332;SDS011;37417;48.118;11.734;2024-03-06T03:07:19;2.05;;;1.45;;
51332;SDS011;37417;48.118;11.734;2024-03-06T03:10:05;2.10;;;1.67;;
51332;SDS011;37417;48.118;11.734;2024-03-06T03:12:51;2.53;;;1.90;;
51332;SDS011;37417;48.118;11.734;2024-03-06T03:15:37;3.08;;;2.25;;
51332;SDS011;37417;48.118;11.734;2024-03-06T03:18:23;2.03;;;1.52;;
51332;SDS011;37417;48.118;11.734;2024-03-06T03:21:09;4.38;;;2.10;;
51332;SDS011;37417;48.118;11.734;2024-03-06T03:23:54;1.95;;;1.70;;
51332;SDS011;37417;48.118;11.734;2024-03-06T03:26:40;2.47;;;1.80;;
51332;SDS011;37417;48.118;11.734;2024-03-06T03:29:27;1.63;;;1.52;;
51332;SDS011;37417;48.118;11.734;2024-03-06T03:32:12;2.45;;;2.10;;
51332;SDS011;37417;48.118;11.734;2024-03-06T03:34:58;2.42;;;1.75;;
51332;SDS011;37417;48.118;11.734;2024-03-06T03:37:43;1.25;;;1.13;;
51332;SDS011;37417;48.118;11.734;2024-03-06T03:40:29;2.10;;;1.90;;
51332;SDS011;37417;48.118;11.734;2024-03-06T03:43:14;2.60;;;1.95;;
51332;SDS011;37417;48.118;11.734;2024-03-06T03:46:01;3.45;;;2.65;;
51332;SDS011;37417;48.118;11.734;2024-03-06T03:48:47;2.17;;;1.92;;
51332;SDS011;37417;48.118;11.734;2024-03-06T03:51:32;1.52;;;1.20;;
51332;SDS011;37417;48.118;11.734;2024-03-06T03:54:18;2.80;;;1.92;;
51332;SDS011;37417;48.118;11.734;2024-03-06T03:57:03;2.83;;;2.15;;
51332;SDS011;37417;48.118;11.734;2024-03-06T03:59:49;4.05;;;2.55;;
51332;SDS011;37417;48.118;11.734;2024-03-06T04:02:34;2.65;;;1.60;;
51332;SDS011;37417;48.118;11.734;2024-03-06T04:05:20;2.30;;;2.00;;
51332;SDS011;37417;48.118;11.734;2024-03-06T04:08:06;2.20;;;2.00;;
51332;SDS011;37417;48.118;11.734;2024-03-06T04:10:52;1.20;;;1.10;;
51332;SDS011;37417;48.118;11.734;2024-03-06T04:13:37;2.40;;;1.80;;
51332;SDS011;37417;48.118;11.734;2024-03-06T04:16:23;1.90;;;1.65;;
51332;SDS011;37417;48.118;11.734;2024-03-06T04:19:09;1.63;;;1.38;;
51332;SDS011;37417;48.118;11.734;2024-03-06T04:21:54;0.80;;;0.80;;
51332;SDS011;37417;48.118;11.734;2024-03-06T04:24:42;2.17;;;1.42;;
51332;SDS011;37417;48.118;11.734;2024-03-06T04:27:28;2.05;;;1.65;;
51332;SDS011;37417;48.118;11.734;2024-03-06T04:30:13;1.83;;;1.73;;
51332;SDS011;37417;48.118;11.734;2024-03-06T04:32:59;1.55;;;1.27;;
51332;SDS011;37417;48.118;11.734;2024-03-06T04:35:44;3.33;;;2.00;;
51332;SDS011;37417;48.118;11.734;2024-03-06T04:38:30;1.55;;;1.45;;
51332;SDS011;37417;48.118;11.734;2024-03-06T04:41:17;1.35;;;1.25;;
51332;SDS011;37417;48.118;11.734;2024-03-06T04:44:03;4.10;;;2.78;;
51332;SDS011;37417;48.118;11.734;2024-03-06T04:46:52;5.60;;;2.72;;
51332;SDS011;37417;48.118;11.734;2024-03-06T04:49:37;1.70;;;1.58;;
51332;SDS011;37417;48.118;11.734;2024-03-06T04:52:23;2.05;;;1.75;;
51332;SDS011;37417;48.118;11.734;2024-03-06T04:55:08;4.82;;;3.30;;
51332;SDS011;37417;48.118;11.734;2024-03-06T04:57:55;2.25;;;1.58;;
51332;SDS011;37417;48.118;11.734;2024-03-06T05:00:40;2.90;;;2.47;;
51332;SDS011;37417;48.118;11.734;2024-03-06T05:03:26;1.98;;;1.88;;
51332;SDS011;37417;48.118;11.734;2024-03-06T05:06:12;3.08;;;2.83;;
51332;SDS011;37417;48.118;11.734;2024-03-06T05:08:57;3.80;;;3.20;;
51332;SDS011;37417;48.118;11.734;2024-03-06T05:11:43;4.13;;;3.13;;
51332;SDS011;37417;48.118;11.734;2024-03-06T05:14:28;2.85;;;2.08;;
51332;SDS011;37417;48.118;11.734;2024-03-06T05:17:14;4.22;;;3.53;;
51332;SDS011;37417;48.118;11.734;2024-03-06T05:19:59;4.57;;;3.65;;
51332;SDS011;37417;48.118;11.734;2024-03-06T05:22:45;4.57;;;3.55;;
51332;SDS011;37417;48.118;11.734;2024-03-06T05:25:30;6.85;;;4.25;;
51332;SDS011;37417;48.118;11.734;2024-03-06T05:28:16;3.05;;;2.40;;
51332;SDS011;37417;48.118;11.734;2024-03-06T05:31:13;4.03;;;3.13;;
51332;SDS011;37417;48.118;11.734;2024-03-06T05:34:00;3.15;;;2.33;;
51332;SDS011;37417;48.118;11.734;2024-03-06T05:36:46;3.67;;;2.53;;
51332;SDS011;37417;48.118;11.734;2024-03-06T05:39:31;1.90;;;1.73;;
51332;SDS011;37417;48.118;11.734;2024-03-06T05:42:17;2.83;;;2.42;;
51332;SDS011;37417;48.118;11.734;2024-03-06T05:45:02;1.85;;;1.65;;
51332;SDS011;37417;48.118;11.734;2024-03-06T05:47:55;3.30;;;2.05;;
51332;SDS011;37417;48.118;11.734;2024-03-06T05:50:41;2.47;;;2.28;;
51332;SDS011;37417;48.118;11.734;2024-03-06T05:53:26;2.40;;;2.20;;
51332;SDS011;37417;48.118;11.734;2024-03-06T05:56:12;2.53;;;2.20;;
51332;SDS011;37417;48.118;11.734;2024-03-06T05:58:57;3.17;;;1.98;;
51332;SDS011;37417;48.118;11.734;2024-03-06T06:01:43;1.63;;;1.45;;
51332;SDS011;37417;48.118;11.734;2024-03-06T06:04:29;2.08;;;1.88;;
51332;SDS011;37417;48.118;11.734;2024-03-06T06:07:15;1.95;;;1.75;;
51332;SDS011;37417;48.118;11.734;2024-03-06T06:10:01;3.22;;;1.98;;
51332;SDS011;37417;48.118;11.734;2024-03-06T06:12:46;3.10;;;2.80;;
51332;SDS011;37417;48.118;11.734;2024-03-06T06:15:32;1.85;;;1.60;;
51332;SDS011;37417;48.118;11.734;2024-03-06T06:18:18;1.88;;;1.50;;
51332;SDS011;37417;48.118;11.734;2024-03-06T06:21:03;1.58;;;1.20;;
51332;SDS011;37417;48.118;11.734;2024-03-06T06:23:52;1.73;;;1.63;;
51332;SDS011;37417;48.118;11.734;2024-03-06T06:26:38;2.22;;;1.58;;
51332;SDS011;37417;48.118;11.734;2024-03-06T06:29:23;1.70;;;1.60;;
51332;SDS011;37417;48.118;11.734;2024-03-06T06:32:09;1.55;;;1.25;;
51332;SDS011;37417;48.118;11.734;2024-03-06T06:34:55;1.83;;;1.73;;
51332;SDS011;37417;48.118;11.734;2024-03-06T06:37:41;2.00;;;1.80;;
51332;SDS011;37417;48.118;11.734;2024-03-06T06:40:27;2.42;;;1.90;;
51332;SDS011;37417;48.118;11.734;2024-03-06T06:43:13;2.20;;;2.00;;
51332;SDS011;37417;48.118;11.734;2024-03-06T06:45:59;3.53;;;2.53;;
51332;SDS011;37417;48.118;11.734;2024-03-06T06:48:44;3.22;;;1.90;;
51332;SDS011;37417;48.118;11.734;2024-03-06T06:51:30;1.85;;;1.55;;
51332;SDS011;37417;48.118;11.734;2024-03-06T06:54:15;4.10;;;2.28;;
51332;SDS011;37417;48.118;11.734;2024-03-06T06:57:01;2.95;;;2.38;;
51332;SDS011;37417;48.118;11.734;2024-03-06T06:59:48;3.45;;;2.63;;
51332;SDS011;37417;48.118;11.734;2024-03-06T07:02:34;3.80;;;2.60;;
51332;SDS011;37417;48.118;11.734;2024-03-06T07:05:19;2.85;;;2.35;;
51332;SDS011;37417;48.118;11.734;2024-03-06T07:08:05;2.58;;;1.75;;
51332;SDS011;37417;48.118;11.734;2024-03-06T07:10:51;4.07;;;2.60;;
51332;SDS011;37417;48.118;11.734;2024-03-06T07:13:40;2.75;;;2.38;;
51332;SDS011;37417;48.118;11.734;2024-03-06T07:16:25;1.70;;;1.50;;
51332;SDS011;37417;48.118;11.734;2024-03-06T07:19:11;3.72;;;2.78;;
51332;SDS011;37417;48.118;11.734;2024-03-06T07:21:59;3.05;;;2.13;;
51332;SDS011;37417;48.118;11.734;2024-03-06T07:24:48;2.47;;;2.03;;
51332;SDS011;37417;48.118;11.734;2024-03-06T07:27:34;2.67;;;2.38;;
51332;SDS011;37417;48.118;11.734;2024-03-06T07:30:19;3.58;;;2.45;;
51332;SDS011;37417;48.118;11.734;2024-03-06T07:33:05;2.70;;;2.50;;
51332;SDS011;37417;48.118;11.734;2024-03-06T07:35:52;2.40;;;2.20;;
51332;SDS011;37417;48.118;11.734;2024-03-06T07:38:37;2.65;;;2.45;;
51332;SDS011;37417;48.118;11.734;2024-03-06T07:41:23;2.67;;;2.10;;
51332;SDS011;37417;48.118;11.734;2024-03-06T07:44:08;2.45;;;1.98;;
51332;SDS011;37417;48.118;11.734;2024-03-06T07:46:54;2.33;;;2.10;;
51332;SDS011;37417;48.118;11.734;2024-03-06T07:49:40;2.42;;;2.17;;
51332;SDS011;37417;48.118;11.734;2024-03-06T07:52:25;3.03;;;2.33;;
51332;SDS011;37417;48.118;11.734;2024-03-06T07:55:11;1.45;;;1.08;;
51332;SDS011;37417;48.118;11.734;2024-03-06T07:57:56;3.75;;;2.10;;
51332;SDS011;37417;48.118;11.734;2024-03-06T08:00:42;3.13;;;2.20;;
51332;SDS011;37417;48.118;11.734;2024-03-06T08:03:27;2.13;;;1.92;;
51332;SDS011;37417;48.118;11.734;2024-03-06T08:06:13;2.50;;;2.13;;
51332;SDS011;37417;48.118;11.734;2024-03-06T08:09:01;2.58;;;2.20;;
51332;SDS011;37417;48.118;11.734;2024-03-06T08:11:47;2.90;;;2.40;;
51332;SDS011;37417;48.118;11.734;2024-03-06T08:14:33;1.70;;;1.52;;
51332;SDS011;37417;48.118;11.734;2024-03-06T08:17:18;3.80;;;2.67;;
51332;SDS011;37417;48.118;11.734;2024-03-06T08:20:04;2.83;;;2.15;;
51332;SDS011;37417;48.118;11.734;2024-03-06T08:22:53;1.65;;;1.13;;
51332;SDS011;37417;48.118;11.734;2024-03-06T08:25:38;3.42;;;2.67;;
51332;SDS011;37417;48.118;11.734;2024-03-06T08:28:24;3.40;;;1.98;;
51332;SDS011;37417;48.118;11.734;2024-03-06T08:31:09;1.77;;;1.40;;
51332;SDS011;37417;48.118;11.734;2024-03-06T08:33:55;3.67;;;3.35;;
51332;SDS011;37417;48.118;11.734;2024-03-06T08:36:40;2.17;;;1.98;;
51332;SDS011;37417;48.118;11.734;2024-03-06T08:39:26;3.67;;;2.28;;
51332;SDS011;37417;48.118;11.734;2024-03-06T08:42:11;2.13;;;1.70;;
51332;SDS011;37417;48.118;11.734;2024-03-06T08:44:57;3.67;;;2.58;;
51332;SDS011;37417;48.118;11.734;2024-03-06T08:47:43;2.33;;;1.88;;
51332;SDS011;37417;48.118;11.734;2024-03-06T08:50:29;2.92;;;1.75;;
51332;SDS011;37417;48.118;11.734;2024-03-06T08:53:15;3.55;;;2.78;;
51332;SDS011;37417;48.118;11.734;2024-03-06T08:56:01;3.50;;;1.67;;
51332;SDS011;37417;48.118;11.734;2024-03-06T08:58:47;2.60;;;2.40;;
51332;SDS011;37417;48.118;11.734;2024-03-06T09:01:32;2.78;;;2.35;;
51332;SDS011;37417;48.118;11.734;2024-03-06T09:04:18;2.60;;;2.40;;
51332;SDS011;37417;48.118;11.734;2024-03-06T09:07:03;2.50;;;2.00;;
51332;SDS011;37417;48.118;11.734;2024-03-06T09:09:49;2.42;;;2.20;;
51332;SDS011;37417;48.118;11.734;2024-03-06T09:12:37;2.38;;;2.15;;
51332;SDS011;37417;48.118;11.734;2024-03-06T09:15:22;2.50;;;2.30;;
51332;SDS011;37417;48.118;11.734;2024-03-06T09:18:08;2.40;;;2.20;;
51332;SDS011;37417;48.118;11.734;2024-03-06T09:20:53;4.45;;;1.95;;
51332;SDS011;37417;48.118;11.734;2024-03-06T09:23:39;2.17;;;1.92;;
51332;SDS011;37417;48.118;11.734;2024-03-06T09:26:24;2.95;;;2.15;;
51332;SDS011;37417;48.118;11.734;2024-03-06T09:29:10;3.40;;;2.47;;
51332;SDS011;37417;48.118;11.734;2024-03-06T09:31:55;2.42;;;1.90;;
51332;SDS011;37417;48.118;11.734;2024-03-06T09:34:41;2.88;;;2.08;;
51332;SDS011;37417;48.118;11.734;2024-03-06T09:37:26;2.97;;;2.38;;
51332;SDS011;37417;48.118;11.734;2024-03-06T09:40:19;2.78;;;1.98;;
51332;SDS011;37417;48.118;11.734;2024-03-06T09:43:05;3.83;;;2.25;;
51332;SDS011;37417;48.118;11.734;2024-03-06T09:45:52;1.67;;;1.45;;
51332;SDS011;37417;48.118;11.734;2024-03-06T09:48:38;3.45;;;2.17;;
51332;SDS011;37417;48.118;11.734;2024-03-06T09:51:30;2.22;;;2.03;;
51332;SDS011;37417;48.118;11.734;2024-03-06T09:54:16;5.57;;;3.03;;
51332;SDS011;37417;48.118;11.734;2024-03-06T09:57:02;3.28;;;2.80;;
51332;SDS011;37417;48.118;11.734;2024-03-06T09:59:48;2.58;;;2.38;;
51332;SDS011;37417;48.118;11.734;2024-03-06T10:02:37;2.42;;;2.22;;
51332;SDS011;37417;48.118;11.734;2024-03-06T10:05:23;3.05;;;2.05;;
51332;SDS011;37417;48.118;11.734;2024-03-06T10:08:09;2.33;;;2.08;;
51332;SDS011;37417;48.118;11.734;2024-03-06T10:10:55;3.55;;;1.92;;
51332;SDS011;37417;48.118;11.734;2024-03-06T10:13:41;2.65;;;2.45;;
51332;SDS011;37417;48.118;11.734;2024-03-06T10:16:27;2.70;;;2.15;;
51332;SDS011;37417;48.118;11.734;2024-03-06T10:19:16;2.63;;;2.00;;
51332;SDS011;37417;48.118;11.734;2024-03-06T10:22:06;3.13;;;2.03;;
51332;SDS011;37417;48.118;11.734;2024-03-06T10:24:56;2.85;;;2.17;;
51332;SDS011;37417;48.118;11.734;2024-03-06T10:27:42;3.15;;;2.40;;
51332;SDS011;37417;48.118;11.734;2024-03-06T10:30:27;5.18;;;2.88;;
51332;SDS011;37417;48.118;11.734;2024-03-06T10:33:13;3.15;;;2.10;;
51332;SDS011;37417;48.118;11.734;2024-03-06T10:35:59;3.20;;;2.63;;
51332;SDS011;37417;48.118;11.734;2024-03-06T10:38:44;3.55;;;2.50;;
51332;SDS011;37417;48.118;11.734;2024-03-06T10:41:34;3.83;;;1.90;;
51332;SDS011;37417;48.118;11.734;2024-03-06T10:44:21;3.92;;;2.33;;
51332;SDS011;37417;48.118;11.734;2024-03-06T10:47:09;2.78;;;2.40;;
51332;SDS011;37417;48.118;11.734;2024-03-06T10:49:55;3.35;;;2.67;;
51332;SDS011;37417;48.118;11.734;2024-03-06T10:52:40;2.85;;;2.58;;
51332;SDS011;37417;48.118;11.734;2024-03-06T10:55:27;3.28;;;2.53;;
51332;SDS011;37417;48.118;11.734;2024-03-06T10:58:13;6.10;;;2.65;;
51332;SDS011;37417;48.118;11.734;2024-03-06T11:00:58;5.25;;;2.75;;
51332;SDS011;37417;48.118;11.734;2024-03-06T11:03:44;5.68;;;3.03;;
51332;SDS011;37417;48.118;11.734;2024-03-06T11:06:30;3.97;;;3.00;;
51332;SDS011;37417;48.118;11.734;2024-03-06T11:09:16;2.95;;;2.08;;
51332;SDS011;37417;48.118;11.734;2024-03-06T11:12:02;2.88;;;2.65;;
51332;SDS011;37417;48.118;11.734;2024-03-06T11:14:48;3.80;;;3.15;;
51332;SDS011;37417;48.118;11.734;2024-03-06T11:17:35;3.55;;;2.67;;
51332;SDS011;37417;48.118;11.734;2024-03-06T11:20:21;5.32;;;3.10;;
51332;SDS011;37417;48.118;11.734;2024-03-06T11:23:13;4.13;;;3.20;;
51332;SDS011;37417;48.118;11.734;2024-03-06T11:26:02;4.53;;;3.63;;
51332;SDS011;37417;48.118;11.734;2024-03-06T11:28:48;3.95;;;3.28;;
51332;SDS011;37417;48.118;11.734;2024-03-06T11:31:36;4.47;;;3.75;;
51332;SDS011;37417;48.118;11.734;2024-03-06T11:34:22;4.72;;;3.33;;
51332;SDS011;37417;48.118;11.734;2024-03-06T11:37:07;4.20;;;3.63;;
51332;SDS011;37417;48.118;11.734;2024-03-06T11:40:00;4.70;;;4.00;;
51332;SDS011;37417;48.118;11.734;2024-03-06T11:42:53;5.25;;;4.60;;
51332;SDS011;37417;48.118;11.734;2024-03-06T11:45:44;7.15;;;4.22;;
51332;SDS011;37417;48.118;11.734;2024-03-06T11:48:30;5.88;;;3.70;;
51332;SDS011;37417;48.118;11.734;2024-03-06T11:51:16;5.10;;;3.92;;
51332;SDS011;37417;48.118;11.734;2024-03-06T11:54:02;8.00;;;3.95;;
51332;SDS011;37417;48.118;11.734;2024-03-06T11:56:51;4.47;;;4.00;;
51332;SDS011;37417;48.118;11.734;2024-03-06T11:59:39;5.00;;;4.00;;
51332;SDS011;37417;48.118;11.734;2024-03-06T12:02:24;3.90;;;3.47;;
51332;SDS011;37417;48.118;11.734;2024-03-06T12:05:10;9.77;;;3.65;;
51332;SDS011;37417;48.118;11.734;2024-03-06T12:07:55;4.40;;;3.90;;
51332;SDS011;37417;48.118;11.734;2024-03-06T12:10:41;5.38;;;3.38;;
51332;SDS011;37417;48.118;11.734;2024-03-06T12:13:27;4.20;;;3.08;;
51332;SDS011;37417;48.118;11.734;2024-03-06T12:16:12;5.05;;;3.28;;
51332;SDS011;37417;48.118;11.734;2024-03-06T12:18:58;4.47;;;3.30;;
51332;SDS011;37417;48.118;11.734;2024-03-06T12:21:46;6.13;;;3.20;;
51332;SDS011;37417;48.118;11.734;2024-03-06T12:24:32;4.80;;;3.40;;
51332;SDS011;37417;48.118;11.734;2024-03-06T12:27:22;4.38;;;3.20;;
51332;SDS011;37417;48.118;11.734;2024-03-06T12:30:10;7.78;;;3.67;;
51332;SDS011;37417;48.118;11.734;2024-03-06T12:33:01;5.78;;;3.00;;
51332;SDS011;37417;48.118;11.734;2024-03-06T12:35:59;4.88;;;3.15;;
51332;SDS011;37417;48.118;11.734;2024-03-06T12:38:44;4.90;;;3.95;;
51332;SDS011;37417;48.118;11.734;2024-03-06T12:41:30;4.88;;;3.75;;
51332;SDS011;37417;48.118;11.734;2024-03-06T12:44:15;4.00;;;3.42;;
51332;SDS011;37417;48.118;11.734;2024-03-06T12:47:01;6.13;;;3.83;;
51332;SDS011;37417;48.118;11.734;2024-03-06T12:49:47;3.55;;;3.03;;
51332;SDS011;37417;48.118;11.734;2024-03-06T12:52:39;4.45;;;3.35;;
51332;SDS011;37417;48.118;11.734;2024-03-06T12:55:25;6.25;;;3.30;;
51332;SDS011;37417;48.118;11.734;2024-03-06T12:58:11;2.42;;;2.22;;
51332;SDS011;37417;48.118;11.734;2024-03-06T13:00:57;6.82;;;4.05;;
51332;SDS011;37417;48.118;11.734;2024-03-06T13:03:43;5.40;;;3.30;;
51332;SDS011;37417;48.118;11.734;2024-03-06T13:06:28;5.05;;;3.00;;
51332;SDS011;37417;48.118;11.734;2024-03-06T13:09:14;4.30;;;3.28;;
51332;SDS011;37417;48.118;11.734;2024-03-06T13:12:00;4.43;;;2.75;;
51332;SDS011;37417;48.118;11.734;2024-03-06T13:14:45;3.08;;;2.78;;
51332;SDS011;37417;48.118;11.734;2024-03-06T13:17:31;3.35;;;3.03;;
51332;SDS011;37417;48.118;11.734;2024-03-06T13:20:16;3.50;;;2.60;;
51332;SDS011;37417;48.118;11.734;2024-03-06T13:23:02;4.25;;;2.90;;
51332;SDS011;37417;48.118;11.734;2024-03-06T13:25:49;3.15;;;2.17;;
51332;SDS011;37417;48.118;11.734;2024-03-06T13:28:34;3.85;;;2.20;;
51332;SDS011;37417;48.118;11.734;2024-03-06T13:31:20;2.97;;;2.10;;
51332;SDS011;37417;48.118;11.734;2024-03-06T13:34:05;3.47;;;2.63;;
51332;SDS011;37417;48.118;11.734;2024-03-06T13:36:51;4.47;;;2.60;;
51332;SDS011;37417;48.118;11.734;2024-03-06T13:39:36;3.28;;;2.25;;
51332;SDS011;37417;48.118;11.734;2024-03-06T13:42:22;3.13;;;2.70;;
51332;SDS011;37417;48.118;11.734;2024-03-06T13:45:08;2.20;;;1.55;;
51332;SDS011;37417;48.118;11.734;2024-03-06T13:47:57;8.15;;;2.55;;
51332;SDS011;37417;48.118;11.734;2024-03-06T13:50:42;2.95;;;2.53;;
51332;SDS011;37417;48.118;11.734;2024-03-06T13:53:30;1.33;;;1.23;;
51332;SDS011;37417;48.118;11.734;2024-03-06T13:56:15;3.40;;;2.60;;
51332;SDS011;37417;48.118;11.734;2024-03-06T13:59:01;1.48;;;1.33;;
51332;SDS011;37417;48.118;11.734;2024-03-06T14:01:47;3.20;;;1.50;;
51332;SDS011;37417;48.118;11.734;2024-03-06T14:04:34;4.18;;;2.50;;
51332;SDS011;37417;48.118;11.734;2024-03-06T14:07:20;3.20;;;2.67;;
51332;SDS011;37417;48.118;11.734;2024-03-06T14:13:25;2.63;;;2.00;;
51332;SDS011;37417;48.118;11.734;2024-03-06T14:16:11;2.05;;;1.80;;
51332;SDS011;37417;48.118;11.734;2024-03-06T14:18:57;1.85;;;1.52;;
51332;SDS011;37417;48.118;11.734;2024-03-06T14:21:42;10.85;;;2.47;;
51332;SDS011;37417;48.118;11.734;2024-03-06T14:24:28;4.35;;;2.83;;
51332;SDS011;37417;48.118;11.734;2024-03-06T14:27:14;2.75;;;2.28;;
51332;SDS011;37417;48.118;11.734;2024-03-06T14:30:00;3.88;;;2.83;;
51332;SDS011;37417;48.118;11.734;2024-03-06T14:32:47;3.45;;;2.58;;
51332;SDS011;37417;48.118;11.734;2024-03-06T14:35:33;3.63;;;2.30;;
51332;SDS011;37417;48.118;11.734;2024-03-06T14:38:18;3.85;;;2.85;;
51332;SDS011;37417;48.118;11.734;2024-03-06T14:41:04;3.72;;;1.67;;
51332;SDS011;37417;48.118;11.734;2024-03-06T14:43:51;2.75;;;2.35;;
51332;SDS011;37417;48.118;11.734;2024-03-06T14:46:36;3.85;;;2.38;;
51332;SDS011;37417;48.118;11.734;2024-03-06T14:49:22;2.72;;;2.15;;
51332;SDS011;37417;48.118;11.734;2024-03-06T14:52:08;2.35;;;1.85;;
51332;SDS011;37417;48.118;11.734;2024-03-06T14:54:54;2.53;;;1.90;;
51332;SDS011;37417;48.118;11.734;2024-03-06T14:57:39;1.17;;;0.85;;
51332;SDS011;37417;48.118;11.734;2024-03-06T15:00:25;3.65;;;1.92;;
51332;SDS011;37417;48.118;11.734;2024-03-06T15:03:10;2.72;;;2.10;;
51332;SDS011;37417;48.118;11.734;2024-03-06T15:05:56;2.35;;;1.95;;
51332;SDS011;37417;48.118;11.734;2024-03-06T15:08:42;2.25;;;1.58;;
51332;SDS011;37417;48.118;11.734;2024-03-06T15:11:30;2.53;;;2.05;;
51332;SDS011;37417;48.118;11.734;2024-03-06T15:14:17;1.83;;;1.20;;
51332;SDS011;37417;48.118;11.734;2024-03-06T15:17:04;2.63;;;1.95;;
51332;SDS011;37417;48.118;11.734;2024-03-06T15:19:49;1.90;;;1.80;;
51332;SDS011;37417;48.118;11.734;2024-03-06T15:22:35;3.88;;;1.60;;
51332;SDS011;37417;48.118;11.734;2024-03-06T15:25:26;3.55;;;2.63;;
51332;SDS011;37417;48.118;11.734;2024-03-06T15:28:12;3.42;;;1.75;;
51332;SDS011;37417;48.118;11.734;2024-03-06T15:30:57;2.90;;;2.13;;
51332;SDS011;37417;48.118;11.734;2024-03-06T15:33:43;2.85;;;2.08;;
51332;SDS011;37417;48.118;11.734;2024-03-06T15:36:29;4.20;;;2.05;;
51332;SDS011;37417;48.118;11.734;2024-03-06T15:39:14;2.83;;;1.88;;
51332;SDS011;37417;48.118;11.734;2024-03-06T15:42:00;2.20;;;1.98;;
51332;SDS011;37417;48.118;11.734;2024-03-06T15:44:46;2.47;;;1.88;;
51332;SDS011;37417;48.118;11.734;2024-03-06T15:47:31;2.50;;;1.98;;
51332;SDS011;37417;48.118;11.734;2024-03-06T15:50:19;4.57;;;2.90;;
51332;SDS011;37417;48.118;11.734;2024-03-06T15:53:04;3.97;;;2.70;;
51332;SDS011;37417;48.118;11.734;2024-03-06T15:55:50;2.10;;;1.90;;
51332;SDS011;37417;48.118;11.734;2024-03-06T15:58:35;4.40;;;2.47;;
51332;SDS011;37417;48.118;11.734;2024-03-06T16:01:21;3.35;;;2.00;;
51332;SDS011;37417;48.118;11.734;2024-03-06T16:04:06;3.70;;;2.47;;
51332;SDS011;37417;48.118;11.734;2024-03-06T16:06:52;3.78;;;2.20;;
51332;SDS011;37417;48.118;11.734;2024-03-06T16:09:38;3.88;;;2.15;;
51332;SDS011;37417;48.118;11.734;2024-03-06T16:12:24;3.63;;;1.88;;
51332;SDS011;37417;48.118;11.734;2024-03-06T16:15:10;1.98;;;1.63;;
51332;SDS011;37417;48.118;11.734;2024-03-06T16:17:55;5.78;;;2.70;;
51332;SDS011;37417;48.118;11.734;2024-03-06T16:20:41;4.38;;;2.95;;
51332;SDS011;37417;48.118;11.734;2024-03-06T16:23:27;3.70;;;2.22;;
51332;SDS011;37417;48.118;11.734;2024-03-06T16:26:12;4.65;;;2.20;;
51332;SDS011;37417;48.118;11.734;2024-03-06T16:28:58;4.45;;;3.30;;